createdAt,value
2024-02-29T00:01:04.345Z,101368.47
2024-02-29T00:03:34.421Z,101363.09
2024-02-29T00:06:04.631Z,101364.06
2024-02-29T00:08:37.197Z,101351.63
2024-02-29T00:11:07.432Z,101355.06
2024-02-29T00:13:37.517Z,101350.50
2024-02-29T00:16:08.453Z,101345.25
2024-02-29T00:18:38.480Z,101339.72
2024-02-29T00:21:08.802Z,101338.97
2024-02-29T00:23:41.518Z,101327.53
2024-02-29T00:26:12.120Z,101334.47
2024-02-29T00:28:42.112Z,101330.03
2024-02-29T00:31:12.231Z,101328.28
2024-02-29T00:33:43.862Z,101322.25
2024-02-29T00:36:13.907Z,101330.13
2024-02-29T00:38:46.745Z,101325.75
2024-02-29T00:41:16.871Z,101321.28
2024-02-29T00:43:46.878Z,101319.53
2024-02-29T00:46:18.422Z,101318.66
2024-02-29T00:48:49.313Z,101310.69
2024-02-29T00:51:20.897Z,101303.00
2024-02-29T00:53:53.456Z,101301.19
2024-02-29T00:56:23.462Z,101292.50
2024-02-29T00:58:53.402Z,101303.13
2024-02-29T01:01:23.491Z,101303.06
2024-02-29T01:03:53.615Z,101303.00
2024-02-29T01:06:23.584Z,101295.34
2024-02-29T01:08:56.225Z,101284.63
2024-02-29T01:11:26.419Z,101282.81
2024-02-29T01:13:56.578Z,101277.53
2024-02-29T01:16:26.635Z,101283.81
2024-02-29T01:18:56.649Z,101272.34
2024-02-29T01:21:26.653Z,101255.69
2024-02-29T01:23:59.209Z,101269.72
2024-02-29T01:26:29.149Z,101260.88
2024-02-29T01:28:59.096Z,101255.69
2024-02-29T01:31:29.049Z,101251.34
2024-02-29T01:33:59.040Z,101241.69
2024-02-29T01:36:29.035Z,101239.97
2024-02-29T01:39:01.670Z,101221.59
2024-02-29T01:41:31.591Z,101233.00
2024-02-29T01:44:01.854Z,101218.00
2024-02-29T01:46:32.803Z,101214.41
2024-02-29T01:49:05.745Z,101210.91
2024-02-29T01:51:36.656Z,101213.53
2024-02-29T01:54:10.145Z,101201.38
2024-02-29T01:56:40.446Z,101209.25
2024-02-29T01:59:11.027Z,101196.00
2024-02-29T02:01:41.654Z,101198.63
2024-02-29T02:04:09.089Z,101193.53
2024-02-29T02:06:39.560Z,101182.81
2024-02-29T02:09:12.206Z,101178.47
2024-02-29T02:11:42.358Z,101174.13
2024-02-29T02:14:12.606Z,101166.19
2024-02-29T02:16:43.669Z,101166.19
2024-02-29T02:19:15.911Z,101156.53
2024-02-29T02:21:48.612Z,101143.44
2024-02-29T02:24:18.670Z,101143.44
2024-02-29T02:26:48.642Z,101139.88
2024-02-29T02:29:18.619Z,101137.34
2024-02-29T02:31:48.552Z,101125.88
2024-02-29T02:34:18.617Z,101126.84
2024-02-29T02:36:51.251Z,101126.00
2024-02-29T02:39:21.457Z,101118.16
2024-02-29T02:41:51.422Z,101124.31
2024-02-29T02:44:21.387Z,101117.25
2024-02-29T02:46:51.367Z,101112.97
2024-02-29T02:49:22.265Z,101095.47
2024-02-29T02:51:54.875Z,101107.59
2024-02-29T02:54:24.883Z,101098.91
2024-02-29T02:56:54.841Z,101094.63
2024-02-29T02:59:25.000Z,101095.53
2024-02-29T03:01:55.086Z,101091.25
2024-02-29T03:04:25.117Z,101093.75
2024-02-29T03:06:57.699Z,101090.34
2024-02-29T03:09:27.725Z,101084.28
2024-02-29T03:11:58.661Z,101086.00
2024-02-29T03:14:28.782Z,101071.16
2024-02-29T03:16:58.712Z,101077.16
2024-02-29T03:19:28.720Z,101077.16
2024-02-29T03:22:03.436Z,101061.44
2024-02-29T03:24:33.433Z,101070.94
2024-02-29T03:27:03.372Z,101068.41
2024-02-29T03:29:35.126Z,101065.69
2024-02-29T03:32:05.146Z,101066.69
2024-02-29T03:34:35.267Z,101061.63
2024-02-29T03:37:07.914Z,101057.25
2024-02-29T03:39:39.449Z,101051.06
2024-02-29T03:42:09.705Z,101042.25
2024-02-29T03:44:42.736Z,101051.06
2024-02-29T03:47:12.743Z,101035.16
2024-02-29T03:49:43.323Z,101037.06
2024-02-29T03:52:16.038Z,101027.47
2024-02-29T03:54:46.571Z,101021.34
2024-02-29T03:57:16.535Z,101024.84
2024-02-29T03:59:48.580Z,101021.47
2024-02-29T04:02:19.024Z,101016.22
2024-02-29T04:04:49.113Z,101011.06
2024-02-29T04:07:22.741Z,101017.06
2024-02-29T04:09:56.046Z,101012.56
2024-02-29T04:12:26.114Z,101007.34
2024-02-29T04:14:56.090Z,101004.63
2024-02-29T04:17:26.220Z,101013.47
2024-02-29T04:19:56.188Z,101014.34
2024-02-29T04:22:31.070Z,101011.72
2024-02-29T04:25:01.171Z,101009.28
2024-02-29T04:27:32.769Z,101004.78
2024-02-29T04:30:02.754Z,100992.38
2024-02-29T04:32:32.777Z,100996.00
2024-02-29T04:35:02.849Z,100994.31
2024-02-29T04:37:35.417Z,100983.59
2024-02-29T04:40:07.483Z,100973.94
2024-02-29T04:42:38.893Z,100981.75
2024-02-29T04:45:09.977Z,100984.28
2024-02-29T04:47:39.987Z,100986.88
2024-02-29T04:50:10.831Z,100987.69
2024-02-29T04:52:43.440Z,100985.91
2024-02-29T04:55:14.391Z,100982.31
2024-02-29T04:57:44.485Z,100985.81
2024-02-29T05:00:15.845Z,100977.91
2024-02-29T05:02:45.835Z,100977.81
2024-02-29T05:05:16.888Z,100969.06
2024-02-29T05:07:49.461Z,100964.72
2024-02-29T05:10:19.575Z,100955.88
2024-02-29T05:12:51.961Z,100955.84
2024-02-29T05:15:24.266Z,100962.78
2024-02-29T05:17:54.373Z,100951.41
2024-02-29T05:20:24.400Z,100952.16
2024-02-29T05:22:56.976Z,100959.22
2024-02-29T05:25:27.601Z,100954.88
2024-02-29T05:27:57.544Z,100955.63
2024-02-29T05:30:27.493Z,100952.16
2024-02-29T05:32:57.637Z,100962.66
2024-02-29T05:35:27.722Z,100950.50
2024-02-29T05:38:00.272Z,100947.81
2024-02-29T05:40:30.781Z,100941.69
2024-02-29T05:43:02.501Z,100946.94
2024-02-29T05:45:32.505Z,100934.72
2024-02-29T05:48:05.536Z,100939.91
2024-02-29T05:50:38.631Z,100941.56
2024-02-29T05:53:12.645Z,100926.72
2024-02-29T05:55:42.558Z,100919.63
2024-02-29T05:58:12.616Z,100920.59
2024-02-29T06:00:42.664Z,100919.75
2024-02-29T06:03:12.715Z,100913.63
2024-02-29T06:05:43.519Z,100918.94
2024-02-29T06:08:17.424Z,100915.47
2024-02-29T06:10:48.457Z,100917.28
2024-02-29T06:13:18.813Z,100913.69
2024-02-29T06:15:49.056Z,100919.81
2024-02-29T06:18:19.034Z,100916.31
2024-02-29T06:20:48.975Z,100917.28
2024-02-29T06:23:21.593Z,100920.59
2024-02-29T06:25:52.777Z,100915.34
2024-02-29T06:28:24.465Z,100931.06
2024-02-29T06:30:54.927Z,100924.97
2024-02-29T06:33:24.973Z,100928.56
2024-02-29T06:35:55.827Z,100916.34
2024-02-29T06:38:28.392Z,100922.38
2024-02-29T06:40:58.333Z,100934.50
2024-02-29T06:43:30.658Z,100932.94
2024-02-29T06:46:05.806Z,100917.88
2024-02-29T06:48:35.991Z,100922.31
2024-02-29T06:51:06.346Z,100923.22
2024-02-29T06:53:39.688Z,100923.22
2024-02-29T06:56:09.964Z,100924.97
2024-02-29T06:58:40.033Z,100924.19
2024-02-29T07:01:10.018Z,100924.97
2024-02-29T07:03:40.044Z,100922.38
2024-02-29T07:06:10.573Z,100910.09
2024-02-29T07:08:43.523Z,100920.50
2024-02-29T07:11:15.505Z,100919.69
2024-02-29T07:13:46.084Z,100911.88
2024-02-29T07:16:16.146Z,100909.25
2024-02-29T07:18:46.168Z,100919.91
2024-02-29T07:21:16.822Z,100910.22
2024-02-29T07:23:49.381Z,100913.81
2024-02-29T07:26:19.359Z,100919.19
2024-02-29T07:28:49.309Z,100914.81
2024-02-29T07:31:22.827Z,100913.94
2024-02-29T07:33:55.125Z,100910.34
2024-02-29T07:36:26.098Z,100913.13
2024-02-29T07:38:58.692Z,100909.53
2024-02-29T07:41:28.780Z,100917.41
2024-02-29T07:43:59.023Z,100917.41
2024-02-29T07:46:29.086Z,100912.16
2024-02-29T07:49:00.348Z,100915.75
2024-02-29T07:51:30.337Z,100906.16
2024-02-29T07:54:03.845Z,100908.81
2024-02-29T07:56:33.866Z,100902.78
2024-02-29T07:59:03.890Z,100903.72
2024-02-29T08:01:34.062Z,100896.69
2024-02-29T08:04:04.297Z,100902.03
2024-02-29T08:06:37.077Z,100908.25
2024-02-29T08:09:10.908Z,100896.97
2024-02-29T08:11:41.189Z,100901.34
2024-02-29T08:14:11.451Z,100902.25
2024-02-29T08:16:41.661Z,100910.31
2024-02-29T08:19:11.885Z,100903.34
2024-02-29T08:21:42.001Z,100902.53
2024-02-29T08:24:14.758Z,100899.06
2024-02-29T08:26:45.401Z,100899.13
2024-02-29T08:29:18.016Z,100896.56
2024-02-29T08:31:48.359Z,100895.66
2024-02-29T08:34:18.477Z,100901.88
2024-02-29T08:36:51.277Z,100904.50
2024-02-29T08:39:24.670Z,100898.56
2024-02-29T08:41:54.953Z,100898.69
2024-02-29T08:44:25.152Z,100896.19
2024-02-29T08:46:55.451Z,100900.47
2024-02-29T08:49:26.999Z,100900.41
2024-02-29T08:51:57.675Z,100897.91
2024-02-29T08:54:30.678Z,100897.03
2024-02-29T08:57:00.791Z,100896.09
2024-02-29T08:59:30.800Z,100889.16
2024-02-29T09:02:02.241Z,100895.34
2024-02-29T09:04:33.040Z,100882.28
2024-02-29T09:07:04.234Z,100891.94
2024-02-29T09:09:37.951Z,100882.38
2024-02-29T09:12:10.342Z,100877.25
2024-02-29T09:14:40.737Z,100880.81
2024-02-29T09:17:10.793Z,100881.72
2024-02-29T09:19:40.812Z,100874.84
2024-02-29T09:22:10.918Z,100874.94
2024-02-29T09:24:43.607Z,100875.03
2024-02-29T09:27:13.586Z,100872.59
2024-02-29T09:29:46.164Z,100876.13
2024-02-29T09:32:23.471Z,100870.06
2024-02-29T09:34:53.585Z,100863.88
2024-02-29T09:37:23.801Z,100860.44
2024-02-29T09:39:56.572Z,100869.28
2024-02-29T09:42:29.059Z,100865.88
2024-02-29T09:44:59.181Z,100854.53
2024-02-29T09:47:30.846Z,100859.91
2024-02-29T09:50:05.238Z,100860.09
2024-02-29T09:52:40.088Z,100859.31
2024-02-29T09:55:17.320Z,100849.69
2024-02-29T09:57:47.690Z,100848.03
2024-02-29T10:00:19.208Z,100858.53
2024-02-29T10:02:52.913Z,100867.38
2024-02-29T10:05:24.455Z,100855.13
2024-02-29T10:07:54.405Z,100864.84
2024-02-29T10:10:27.209Z,100860.56
2024-02-29T10:12:58.563Z,100860.56
2024-02-29T10:15:31.836Z,100859.69
2024-02-29T10:18:02.393Z,100857.09
2024-02-29T10:20:33.608Z,100857.16
2024-02-29T10:23:04.906Z,100852.81
2024-02-29T10:25:38.232Z,100857.16
2024-02-29T10:28:08.596Z,100839.75
2024-02-29T10:30:39.010Z,100835.50
2024-02-29T10:33:15.044Z,100848.69
2024-02-29T10:35:45.212Z,100852.22
2024-02-29T10:38:16.458Z,100843.38
2024-02-29T10:40:53.216Z,100846.00
2024-02-29T10:43:24.524Z,100844.31
2024-02-29T10:45:57.869Z,100846.09
2024-02-29T10:48:38.121Z,100853.19
2024-02-29T10:51:17.484Z,100845.31
2024-02-29T10:53:57.055Z,100849.75
2024-02-29T10:56:32.424Z,100841.91
2024-02-29T10:59:09.171Z,100849.81
2024-02-29T11:01:40.501Z,100839.28
2024-02-29T11:04:10.596Z,100843.00
2024-02-29T11:06:44.255Z,100835.09
2024-02-29T11:09:15.965Z,100833.44
2024-02-29T11:11:49.634Z,100829.16
2024-02-29T11:14:22.692Z,100827.50
2024-02-29T11:16:52.724Z,100835.47
2024-02-29T11:19:22.796Z,100838.94
2024-02-29T11:21:52.940Z,100825.81
2024-02-29T11:24:24.362Z,100823.13
2024-02-29T11:27:01.186Z,100818.75
2024-02-29T11:29:31.406Z,100816.13
2024-02-29T11:32:01.936Z,100807.28
2024-02-29T11:34:32.011Z,100803.94
2024-02-29T11:37:02.497Z,100800.53
2024-02-29T11:39:32.469Z,100793.72
2024-02-29T11:42:08.978Z,100793.72
2024-02-29T11:44:40.941Z,100798.19
2024-02-29T11:47:13.855Z,100798.25
2024-02-29T11:49:43.946Z,100793.03
2024-02-29T11:52:14.907Z,100780.75
2024-02-29T11:54:45.807Z,100784.34
2024-02-29T11:57:18.491Z,100779.00
2024-02-29T11:59:49.022Z,100770.25
2024-02-29T12:02:19.674Z,100767.72
2024-02-29T12:04:49.662Z,100769.53
2024-02-29T12:07:21.338Z,100771.38
2024-02-29T12:09:51.946Z,100777.53
2024-02-29T12:12:25.532Z,100774.13
2024-02-29T12:14:55.683Z,100767.97
2024-02-29T12:17:28.628Z,100774.19
2024-02-29T12:19:59.440Z,100767.09
2024-02-29T12:22:29.669Z,100767.03
2024-02-29T12:25:01.251Z,100766.16
2024-02-29T12:27:34.227Z,100765.34
2024-02-29T12:30:05.241Z,100770.59
2024-02-29T12:32:35.217Z,100765.44
2024-02-29T12:35:05.599Z,100759.31
2024-02-29T12:37:37.554Z,100754.94
2024-02-29T12:40:10.100Z,100758.50
2024-02-29T12:42:44.149Z,100756.00
2024-02-29T12:45:16.914Z,100757.81
2024-02-29T12:47:50.989Z,100751.66
2024-02-29T12:50:22.402Z,100753.44
2024-02-29T12:52:55.658Z,100742.03
2024-02-29T12:55:25.964Z,100740.41
2024-02-29T12:57:58.816Z,100735.22
2024-02-29T13:00:30.051Z,100743.13
2024-02-29T13:03:00.050Z,100724.78
2024-02-29T13:05:30.035Z,100732.84
2024-02-29T13:08:00.401Z,100724.09
2024-02-29T13:10:30.533Z,100724.09
2024-02-29T13:13:09.398Z,100718.84
2024-02-29T13:15:40.476Z,100711.81
2024-02-29T13:18:10.633Z,100715.41
2024-02-29T13:20:41.504Z,100711.03
2024-02-29T13:23:11.773Z,100708.41
2024-02-29T13:25:41.847Z,100702.28
2024-02-29T13:28:15.378Z,100694.47
2024-02-29T13:30:45.404Z,100698.03
2024-02-29T13:33:17.782Z,100695.53
2024-02-29T13:35:47.947Z,100692.91
2024-02-29T13:38:18.111Z,100689.44
2024-02-29T13:40:48.247Z,100691.13
2024-02-29T13:43:20.844Z,100684.97
2024-02-29T13:45:50.898Z,100689.16
2024-02-29T13:48:23.674Z,100680.28
2024-02-29T13:50:53.644Z,100675.91
2024-02-29T13:53:23.730Z,100674.06
2024-02-29T13:55:54.011Z,100668.00
2024-02-29T13:58:26.708Z,100670.66
2024-02-29T14:00:56.787Z,100664.50
2024-02-29T14:03:26.813Z,100663.53
2024-02-29T14:05:57.020Z,100657.34
2024-02-29T14:08:26.981Z,100660.00
2024-02-29T14:11:12.128Z,100651.28
2024-02-29T14:13:44.734Z,100639.03
2024-02-29T14:16:14.833Z,100640.88
2024-02-29T14:18:45.027Z,100639.09
2024-02-29T14:21:16.644Z,100632.09
2024-02-29T14:23:46.699Z,100628.56
2024-02-29T14:26:17.442Z,100623.41
2024-02-29T14:28:50.515Z,100622.56
2024-02-29T14:31:20.874Z,100620.00
2024-02-29T14:33:51.810Z,100616.56
2024-02-29T14:36:22.036Z,100614.81
2024-02-29T14:38:52.893Z,100613.06
2024-02-29T14:41:22.923Z,100615.81
2024-02-29T14:43:57.136Z,100606.94
2024-02-29T14:46:29.133Z,100608.88
2024-02-29T14:49:00.774Z,100604.44
2024-02-29T14:51:30.838Z,100606.22
2024-02-29T14:54:00.811Z,100595.72
2024-02-29T14:56:31.794Z,100606.13
2024-02-29T14:59:05.283Z,100608.81
2024-02-29T15:01:35.596Z,100603.53
2024-02-29T15:04:05.659Z,100601.94
2024-02-29T15:06:36.061Z,100603.72
2024-02-29T15:09:06.360Z,100595.84
2024-02-29T15:11:36.412Z,100599.31
2024-02-29T15:14:09.261Z,100589.66
2024-02-29T15:16:40.055Z,100593.19
2024-02-29T15:19:12.570Z,100586.34
2024-02-29T15:21:42.680Z,100582.81
2024-02-29T15:24:12.784Z,100578.44
2024-02-29T15:26:44.050Z,100572.16
2024-02-29T15:29:16.625Z,100574.78
2024-02-29T15:31:46.862Z,100571.25
2024-02-29T15:34:16.902Z,100572.09
2024-02-29T15:36:47.752Z,100562.47
2024-02-29T15:39:17.831Z,100560.69
2024-02-29T15:41:47.791Z,100562.38
2024-02-29T15:44:20.486Z,100554.50
2024-02-29T15:46:52.095Z,100550.13
2024-02-29T15:49:22.181Z,100547.38
2024-02-29T15:51:52.331Z,100544.66
2024-02-29T15:54:22.621Z,100546.44
2024-02-29T15:56:52.759Z,100532.31
2024-02-29T15:59:25.356Z,100539.34
2024-02-29T16:01:55.374Z,100531.47
2024-02-29T16:04:26.561Z,100529.75
2024-02-29T16:06:59.876Z,100522.78
2024-02-29T16:09:30.967Z,100523.63
2024-02-29T16:12:01.719Z,100522.78
2024-02-29T16:14:34.465Z,100516.63
2024-02-29T16:17:05.463Z,100522.78
2024-02-29T16:19:35.740Z,100521.09
2024-02-29T16:22:05.857Z,100517.56
2024-02-29T16:24:36.031Z,100514.88
2024-02-29T16:27:05.994Z,100513.13
2024-02-29T16:29:38.719Z,100516.59
2024-02-29T16:32:09.791Z,100513.03
2024-02-29T16:34:40.126Z,100512.19
2024-02-29T16:37:10.228Z,100506.03
2024-02-29T16:39:41.185Z,100496.38
2024-02-29T16:42:11.756Z,100496.38
2024-02-29T16:44:46.173Z,100484.13
2024-02-29T16:47:16.972Z,100490.31
2024-02-29T16:49:48.206Z,100484.13
2024-02-29T16:52:18.171Z,100483.28
2024-02-29T16:54:48.365Z,100474.50
2024-02-29T16:57:18.562Z,100475.31
2024-02-29T16:59:51.166Z,100484.94
2024-02-29T17:02:21.240Z,100474.41
2024-02-29T17:04:51.258Z,100474.34
2024-02-29T17:07:21.285Z,100476.03
2024-02-29T17:09:56.526Z,100478.69
2024-02-29T17:12:32.245Z,100473.34
2024-02-29T17:15:04.926Z,100468.00
2024-02-29T17:17:35.030Z,100468.81
2024-02-29T17:20:16.590Z,100474.06
2024-02-29T17:22:48.488Z,100467.06
2024-02-29T17:25:19.126Z,100465.28
2024-02-29T17:27:49.141Z,100470.47
2024-02-29T17:30:22.095Z,100459.97
2024-02-29T17:32:55.122Z,100459.03
2024-02-29T17:35:29.374Z,100454.66
2024-02-29T17:38:00.118Z,100466.91
2024-02-29T17:40:30.252Z,100464.28
2024-02-29T17:43:02.183Z,100461.63
2024-02-29T17:45:34.760Z,100459.81
2024-02-29T17:48:04.845Z,100459.81
2024-02-29T17:50:34.821Z,100456.31
2024-02-29T17:53:04.842Z,100459.88
2024-02-29T17:55:34.878Z,100456.41
2024-02-29T17:58:04.902Z,100453.75
2024-02-29T18:00:37.522Z,100451.94
2024-02-29T18:03:08.146Z,100451.94
2024-02-29T18:05:38.925Z,100448.44
2024-02-29T18:08:09.440Z,100444.06
2024-02-29T18:10:39.517Z,100444.13
2024-02-29T18:13:09.600Z,100434.44
2024-02-29T18:15:43.191Z,100435.44
2024-02-29T18:18:14.031Z,100425.72
2024-02-29T18:20:44.101Z,100426.63
2024-02-29T18:23:16.173Z,100421.38
2024-02-29T18:25:48.267Z,100426.69
2024-02-29T18:28:18.570Z,100427.59
2024-02-29T18:30:51.945Z,100428.50
2024-02-29T18:33:22.014Z,100425.00
2024-02-29T18:35:53.680Z,100431.13
2024-02-29T18:38:24.078Z,100416.19
2024-02-29T18:40:54.040Z,100416.25
2024-02-29T18:43:24.119Z,100406.63
2024-02-29T18:46:05.331Z,100418.03
2024-02-29T18:48:37.043Z,100403.13
2024-02-29T18:51:09.787Z,100404.06
2024-02-29T18:53:39.807Z,100405.75
2024-02-29T18:56:10.212Z,100389.16
2024-02-29T18:58:40.282Z,100396.19
2024-02-29T19:01:12.981Z,100387.44
2024-02-29T19:03:43.154Z,100392.75
2024-02-29T19:06:13.133Z,100392.75
2024-02-29T19:08:43.093Z,100391.81
2024-02-29T19:11:13.303Z,100392.75
2024-02-29T19:13:44.061Z,100391.88
2024-02-29T19:16:16.709Z,100382.31
2024-02-29T19:18:46.872Z,100385.75
2024-02-29T19:21:17.230Z,100381.28
2024-02-29T19:23:47.210Z,100375.19
2024-02-29T19:26:17.969Z,100377.81
2024-02-29T19:28:47.925Z,100372.53
2024-02-29T19:31:21.123Z,100375.09
2024-02-29T19:33:51.168Z,100364.66
2024-02-29T19:36:23.653Z,100370.81
2024-02-29T19:38:55.146Z,100362.97
2024-02-29T19:41:25.770Z,100360.34
2024-02-29T19:43:55.757Z,100357.72
2024-02-29T19:46:28.770Z,100360.34
2024-02-29T19:49:01.123Z,100357.78
2024-02-29T19:51:31.187Z,100354.25
2024-02-29T19:54:01.140Z,100351.59
2024-02-29T19:56:31.100Z,100346.34
2024-02-29T19:59:01.037Z,100344.53
2024-02-29T20:01:33.709Z,100346.34
2024-02-29T20:04:03.876Z,100338.41
2024-02-29T20:06:34.194Z,100347.13
2024-02-29T20:09:05.542Z,100336.63
2024-02-29T20:11:35.556Z,100339.28
2024-02-29T20:14:06.737Z,100336.63
2024-02-29T20:16:39.366Z,100334.00
2024-02-29T20:19:10.379Z,100335.75
2024-02-29T20:21:40.410Z,100334.81
2024-02-29T20:24:10.554Z,100340.94
2024-02-29T20:26:40.748Z,100332.13
2024-02-29T20:29:12.254Z,100332.19
2024-02-29T20:31:44.812Z,100337.44
2024-02-29T20:34:14.811Z,100329.50
2024-02-29T20:36:46.418Z,100328.66
2024-02-29T20:39:16.581Z,100330.38
2024-02-29T20:41:46.578Z,100321.59
2024-02-29T20:44:17.169Z,100322.47
2024-02-29T20:46:51.091Z,100318.97
2024-02-29T20:49:21.142Z,100313.66
2024-02-29T20:51:53.821Z,100315.41
2024-02-29T20:54:25.026Z,100304.00
2024-02-29T20:56:54.964Z,100298.78
2024-02-29T20:59:27.273Z,100300.47
2024-02-29T21:02:00.983Z,100296.06
2024-02-29T21:04:31.083Z,100283.81
2024-02-29T21:07:01.208Z,100286.44
2024-02-29T21:09:31.182Z,100282.94
2024-02-29T21:12:01.153Z,100282.06
2024-02-29T21:14:31.134Z,100279.44
2024-02-29T21:17:03.846Z,100278.53
2024-02-29T21:19:34.032Z,100280.25
2024-02-29T21:22:05.293Z,100281.25
2024-02-29T21:24:35.248Z,100281.13
2024-02-29T21:27:05.421Z,100273.25
2024-02-29T21:29:35.423Z,100267.94
2024-02-29T21:32:08.834Z,100265.31
2024-02-29T21:34:38.820Z,100274.94
2024-02-29T21:37:08.839Z,100261.78
2024-02-29T21:39:44.735Z,100255.59
2024-02-29T21:42:16.271Z,100255.66
2024-02-29T21:44:46.689Z,100262.69
2024-02-29T21:47:19.340Z,100257.41
2024-02-29T21:49:51.526Z,100252.16
2024-02-29T21:52:21.566Z,100246.00
2024-02-29T21:54:51.620Z,100238.13
2024-02-29T21:57:21.566Z,100239.03
2024-02-29T21:59:51.560Z,100236.38
2024-02-29T22:02:24.265Z,100231.22
2024-02-29T22:04:55.857Z,100234.69
2024-02-29T22:07:25.997Z,100228.53
2024-02-29T22:09:56.076Z,100231.22
2024-02-29T22:12:26.089Z,100228.63
2024-02-29T22:14:57.656Z,100229.53
2024-02-29T22:17:30.828Z,100219.84
2024-02-29T22:20:00.783Z,100218.16
2024-02-29T22:22:32.347Z,100215.53
2024-02-29T22:25:02.309Z,100208.53
2024-02-29T22:27:32.293Z,100209.47
2024-02-29T22:30:02.314Z,100201.63
2024-02-29T22:32:35.668Z,100204.31
2024-02-29T22:35:08.011Z,100205.25
2024-02-29T22:37:38.170Z,100192.97
2024-02-29T22:40:09.755Z,100206.09
2024-02-29T22:42:39.799Z,100205.25
2024-02-29T22:45:13.473Z,100197.38
2024-02-29T22:47:49.198Z,100184.19
2024-02-29T22:50:20.889Z,100188.63
2024-02-29T22:52:52.287Z,100173.69
2024-02-29T22:55:22.272Z,100182.50
2024-02-29T22:57:52.880Z,100177.25
2024-02-29T23:00:27.405Z,100167.59
2024-02-29T23:03:00.600Z,100164.91
2024-02-29T23:05:31.380Z,100158.72
2024-02-29T23:08:01.388Z,100155.19
2024-02-29T23:10:31.394Z,100156.09
2024-02-29T23:13:02.368Z,100148.22
2024-02-29T23:15:32.325Z,100148.28
2024-02-29T23:18:05.330Z,100152.59
2024-02-29T23:20:35.389Z,100146.47
2024-02-29T23:23:06.803Z,100159.53
2024-02-29T23:25:37.188Z,100149.91
2024-02-29T23:28:07.904Z,100150.72
2024-02-29T23:30:38.011Z,100152.47
2024-02-29T23:33:10.846Z,100142.84
2024-02-29T23:35:40.793Z,100136.66
2024-02-29T23:38:10.821Z,100141.91
2024-02-29T23:40:41.610Z,100138.31
2024-02-29T23:43:11.595Z,100142.59
2024-02-29T23:45:41.723Z,100135.53
2024-02-29T23:48:15.241Z,100136.38
2024-02-29T23:50:46.069Z,100142.47
2024-02-29T23:53:16.059Z,100140.72
2024-02-29T23:55:46.197Z,100131.09
2024-02-29T23:58:16.188Z,100134.56
